Time;durP1;ratioP1;P1;durP2;ratioP2;P2;SDS_P1;SDS_P2;PMS_P1;PMS_P2;Temp;Humidity;BMP_temperature;BMP_pressure;BME280_temperature;BME280_humidity;BME280_pressure;Samples;Min_cycle;Max_cycle;Signal;HPM_P1;HPM_P2
2022/08/25 03:00:49;;;;;;;0.80;0.80;;;21.90;72.40;;;;;;6042507;22;20378;-71
2022/08/25 03:03:16;;;;;;;0.70;0.70;;;21.90;72.70;;;;;;5034801;28;20420;-70
2022/08/25 03:05:42;;;;;;;0.70;0.60;;;21.90;72.80;;;;;;5034426;28;20942;-70
2022/08/25 03:08:10;;;;;;;0.77;0.70;;;21.80;72.90;;;;;;5034675;28;20493;-70
2022/08/25 03:10:37;;;;;;;0.80;0.80;;;21.80;72.90;;;;;;5034044;28;20530;-70
2022/08/25 03:13:05;;;;;;;0.73;0.67;;;21.80;72.90;;;;;;5034553;28;20444;-70
2022/08/25 03:15:32;;;;;;;0.70;0.70;;;21.80;73.10;;;;;;5036025;28;20447;-70
2022/08/25 03:18:00;;;;;;;0.70;0.60;;;21.80;73.10;;;;;;5034386;28;20507;-71
2022/08/25 03:20:28;;;;;;;0.70;0.70;;;21.80;73.30;;;;;;5034013;28;21013;-71
2022/08/25 03:22:55;;;;;;;0.73;0.70;;;21.80;73.30;;;;;;5034361;28;20858;-71
2022/08/25 03:28:07;;;;;;;0.77;0.67;;;21.70;73.40;;;;;;5034201;28;20423;-70
2022/08/25 03:30:34;;;;;;;0.70;0.70;;;21.70;73.50;;;;;;5033835;28;20845;-70
2022/08/25 03:33:03;;;;;;;0.90;0.70;;;21.70;73.40;;;;;;5033857;28;20822;-71
2022/08/25 03:35:29;;;;;;;0.70;0.70;;;21.60;73.70;;;;;;5033847;28;20966;-71
2022/08/25 03:37:56;;;;;;;1.20;0.70;;;21.60;73.70;;;;;;5034026;28;20480;-71
2022/08/25 03:40:24;;;;;;;0.70;0.70;;;21.60;73.80;;;;;;5034003;28;20443;-71
2022/08/25 03:42:50;;;;;;;0.70;0.60;;;21.60;73.80;;;;;;5034021;28;20443;-70
2022/08/25 03:45:18;;;;;;;0.70;0.70;;;21.60;73.80;;;;;;5033975;28;20454;-71
2022/08/25 03:47:47;;;;;;;1.10;1.00;;;21.60;73.80;;;;;;5033909;28;20502;-71
2022/08/25 03:50:16;;;;;;;0.70;0.70;;;21.70;73.70;;;;;;5033884;28;20814;-71
2022/08/25 03:52:43;;;;;;;0.70;0.67;;;21.60;73.80;;;;;;5033560;28;20479;-71
2022/08/25 03:55:13;;;;;;;0.80;0.80;;;21.60;73.90;;;;;;5033962;28;20505;-71
2022/08/25 03:57:40;;;;;;;0.80;0.60;;;21.60;74.00;;;;;;5033678;28;20487;-71
2022/08/25 04:00:10;;;;;;;0.70;0.70;;;21.60;74.00;;;;;;5033999;28;20451;-71
2022/08/25 04:02:38;;;;;;;0.70;0.60;;;21.60;74.10;;;;;;5033391;28;20479;-71
2022/08/25 04:05:05;;;;;;;0.70;0.67;;;21.60;74.10;;;;;;5033403;28;20939;-71
2022/08/25 04:07:33;;;;;;;0.90;0.77;;;21.60;74.10;;;;;;5033306;28;20962;-71
2022/08/25 04:10:00;;;;;;;0.70;0.60;;;21.50;74.10;;;;;;5033605;28;20443;-71
2022/08/25 04:12:27;;;;;;;0.80;0.80;;;21.50;74.20;;;;;;5033191;28;20482;-71
2022/08/25 04:14:53;;;;;;;0.90;0.80;;;21.50;74.30;;;;;;5033235;28;20454;-71
2022/08/25 04:17:21;;;;;;;0.80;0.80;;;21.50;74.40;;;;;;5033140;28;21012;-70
2022/08/25 04:19:48;;;;;;;0.70;0.70;;;21.40;74.40;;;;;;5033434;28;20447;-70
2022/08/25 04:22:14;;;;;;;0.70;0.60;;;21.40;74.60;;;;;;5032174;28;21002;-71
2022/08/25 04:24:42;;;;;;;0.70;0.70;;;21.40;74.50;;;;;;5033084;28;20451;-71
2022/08/25 04:27:09;;;;;;;0.80;0.80;;;21.40;74.40;;;;;;5033358;28;20448;-71
2022/08/25 04:29:36;;;;;;;0.70;0.70;;;21.40;74.40;;;;;;5033206;28;20451;-71
2022/08/25 04:32:03;;;;;;;0.80;0.80;;;21.40;74.40;;;;;;5033242;28;20467;-71
2022/08/25 04:34:30;;;;;;;1.00;0.90;;;21.40;74.50;;;;;;5033036;28;20443;-71
2022/08/25 04:36:57;;;;;;;0.80;0.80;;;21.40;74.50;;;;;;5032870;28;21067;-71
2022/08/25 04:39:24;;;;;;;0.80;0.80;;;21.40;74.50;;;;;;5033224;28;20452;-70
2022/08/25 04:41:52;;;;;;;0.80;0.70;;;21.40;74.70;;;;;;5033138;28;20522;-71
2022/08/25 04:44:19;;;;;;;1.10;0.70;;;21.40;74.70;;;;;;5033226;28;20550;-71
2022/08/25 04:46:45;;;;;;;0.80;0.70;;;21.40;74.80;;;;;;5033204;28;20451;-71
2022/08/25 04:49:12;;;;;;;0.80;0.80;;;21.40;74.90;;;;;;5033168;28;20452;-71
2022/08/25 04:51:41;;;;;;;0.80;0.80;;;21.40;75.00;;;;;;5033055;28;20521;-71
2022/08/25 04:54:10;;;;;;;0.80;0.80;;;21.40;74.90;;;;;;5033083;28;20447;-70
2022/08/25 04:56:40;;;;;;;1.17;1.07;;;21.50;75.00;;;;;;5032700;28;20998;-70
2022/08/25 04:59:10;;;;;;;0.70;0.70;;;21.50;74.90;;;;;;5033033;28;20452;-71
2022/08/25 05:01:37;;;;;;;0.70;0.70;;;21.50;75.00;;;;;;5032879;28;20482;-70
2022/08/25 05:04:06;;;;;;;0.80;0.60;;;21.50;75.00;;;;;;5033555;28;20447;-71
2022/08/25 05:06:34;;;;;;;1.10;1.00;;;21.60;75.00;;;;;;5032991;28;20440;-71
2022/08/25 05:09:02;;;;;;;0.90;0.73;;;21.70;74.90;;;;;;5033030;28;20451;-71
2022/08/25 05:11:29;;;;;;;0.80;0.80;;;21.80;74.50;;;;;;5032610;28;20474;-70
2022/08/25 05:13:57;;;;;;;0.70;0.70;;;21.90;74.40;;;;;;5032995;28;20451;-71
2022/08/25 05:16:26;;;;;;;0.70;0.70;;;22.00;74.10;;;;;;5032897;28;20455;-71
2022/08/25 05:18:54;;;;;;;0.80;0.80;;;22.10;73.70;;;;;;5032618;28;20950;-71
2022/08/25 05:21:23;;;;;;;0.90;0.90;;;22.20;73.50;;;;;;5032883;28;20479;-70
2022/08/25 05:23:49;;;;;;;0.80;0.80;;;22.40;73.40;;;;;;5032582;28;20479;-71
2022/08/25 05:26:19;;;;;;;0.70;0.70;;;22.50;73.20;;;;;;5032550;28;20878;-71
2022/08/25 05:28:47;;;;;;;0.80;0.70;;;22.70;73.10;;;;;;5032850;28;20539;-71
2022/08/25 05:31:15;;;;;;;0.90;0.73;;;22.80;72.50;;;;;;5032770;28;20472;-71
2022/08/25 05:33:43;;;;;;;0.73;0.73;;;22.90;72.30;;;;;;5034639;28;20482;-71
2022/08/25 05:36:11;;;;;;;0.80;0.80;;;23.10;72.00;;;;;;5036388;28;20447;-71
2022/08/25 05:38:39;;;;;;;0.90;0.90;;;23.20;71.80;;;;;;5035945;28;20859;-71
2022/08/25 05:41:09;;;;;;;0.80;0.80;;;23.30;71.20;;;;;;5036287;28;20490;-71
2022/08/25 05:43:37;;;;;;;0.80;0.80;;;23.30;70.90;;;;;;5036308;28;20535;-71
2022/08/25 05:46:04;;;;;;;0.80;0.80;;;23.30;70.90;;;;;;5036225;28;20501;-71
2022/08/25 05:48:30;;;;;;;1.00;0.90;;;23.20;71.20;;;;;;5036183;28;20494;-71
2022/08/25 05:51:00;;;;;;;1.47;1.00;;;23.10;71.50;;;;;;5036015;28;20529;-70
2022/08/25 05:53:28;;;;;;;0.80;0.80;;;23.40;71.20;;;;;;5036343;28;20459;-71
2022/08/25 05:55:57;;;;;;;0.80;0.70;;;23.50;70.70;;;;;;5036057;28;20448;-71
2022/08/25 05:58:25;;;;;;;1.00;0.90;;;23.70;70.30;;;;;;5035922;28;20479;-71
2022/08/25 06:00:52;;;;;;;0.93;0.93;;;23.80;70.00;;;;;;5035676;28;20474;-71
2022/08/25 06:03:18;;;;;;;0.80;0.80;;;23.90;69.70;;;;;;5035929;28;20462;-71
2022/08/25 06:05:45;;;;;;;0.80;0.80;;;24.00;69.70;;;;;;5035872;28;20440;-70
2022/08/25 06:08:14;;;;;;;0.90;0.90;;;24.00;69.20;;;;;;5035792;28;20201;-70
2022/08/25 06:10:41;;;;;;;0.97;0.97;;;24.10;69.10;;;;;;5035681;28;20451;-70
2022/08/25 06:13:08;;;;;;;0.90;0.90;;;24.10;69.00;;;;;;5035736;28;20501;-70
2022/08/25 06:15:35;;;;;;;0.97;0.87;;;24.10;69.30;;;;;;5035677;28;20452;-70
2022/08/25 06:18:02;;;;;;;0.80;0.80;;;24.10;69.30;;;;;;5035613;28;21010;-70
2022/08/25 06:20:30;;;;;;;0.80;0.80;;;24.20;69.20;;;;;;5035506;28;20447;-71
2022/08/25 06:22:58;;;;;;;0.80;0.80;;;24.30;68.90;;;;;;5035202;28;20943;-71
2022/08/25 06:25:27;;;;;;;0.93;0.90;;;24.40;68.70;;;;;;5035465;28;20448;-71
2022/08/25 06:27:53;;;;;;;1.10;1.00;;;24.60;68.40;;;;;;5035388;28;20879;-71
2022/08/25 06:30:23;;;;;;;0.80;0.80;;;24.50;68.10;;;;;;5035076;28;20931;-71
2022/08/25 06:32:49;;;;;;;0.90;0.90;;;24.30;68.70;;;;;;5035323;28;20451;-71
2022/08/25 06:35:19;;;;;;;0.93;0.93;;;24.20;69.10;;;;;;5035325;28;20455;-71
2022/08/25 06:37:47;;;;;;;1.00;1.00;;;24.30;68.90;;;;;;5035165;28;20479;-71
2022/08/25 06:40:15;;;;;;;1.00;1.00;;;24.60;68.60;;;;;;5035250;28;20822;-71
2022/08/25 06:42:48;;;;;;;0.90;0.90;;;24.30;69.20;;;;;;5034757;28;20988;-71
2022/08/25 06:45:15;;;;;;;0.87;0.87;;;24.60;68.80;;;;;;5034309;28;20470;-71
2022/08/25 06:47:41;;;;;;;0.93;0.80;;;24.90;67.90;;;;;;5035097;28;20811;-71
2022/08/25 06:50:09;;;;;;;1.00;1.00;;;25.10;67.60;;;;;;5034649;28;20939;-71
2022/08/25 06:52:36;;;;;;;0.83;0.80;;;25.20;67.10;;;;;;5034904;28;20471;-71
2022/08/25 06:55:03;;;;;;;1.30;1.20;;;25.50;66.50;;;;;;5034879;28;20529;-71
2022/08/25 06:57:32;;;;;;;0.90;0.90;;;25.60;66.30;;;;;;5034488;28;20913;-72
2022/08/25 07:00:00;;;;;;;0.80;0.80;;;25.60;65.60;;;;;;5034794;28;20534;-72
2022/08/25 07:02:27;;;;;;;1.07;1.03;;;25.80;65.60;;;;;;5034631;28;20487;-70
2022/08/25 07:04:54;;;;;;;0.90;0.90;;;26.10;64.30;;;;;;5034676;28;20477;-71
2022/08/25 07:07:21;;;;;;;1.67;0.90;;;26.00;64.40;;;;;;5034657;28;20454;-73
2022/08/25 07:09:48;;;;;;;0.90;0.90;;;25.70;65.10;;;;;;5034573;28;20525;-73
2022/08/25 07:12:14;;;;;;;0.80;0.80;;;25.70;65.70;;;;;;5034524;28;20463;-72
2022/08/25 07:14:42;;;;;;;0.77;0.70;;;25.90;65.10;;;;;;5034497;28;20493;-73
2022/08/25 07:17:10;;;;;;;1.00;0.90;;;26.30;64.60;;;;;;5034407;28;20486;-73
2022/08/25 07:19:37;;;;;;;0.90;0.90;;;26.50;63.90;;;;;;5034446;28;20451;-73
2022/08/25 07:22:04;;;;;;;0.80;0.80;;;26.30;63.70;;;;;;5034346;28;20538;-74
2022/08/25 07:24:31;;;;;;;1.10;1.00;;;26.20;63.70;;;;;;5034314;28;20450;-73
2022/08/25 07:26:57;;;;;;;0.80;0.80;;;25.90;64.40;;;;;;5034244;28;20439;-73
2022/08/25 07:29:27;;;;;;;0.80;0.80;;;25.80;65.00;;;;;;5035349;28;20459;-73
2022/08/25 07:31:54;;;;;;;1.20;1.10;;;25.50;65.60;;;;;;5034108;28;20874;-73
2022/08/25 07:37:06;;;;;;;0.90;0.90;;;25.10;67.00;;;;;;5033920;28;20410;-74
2022/08/25 07:39:34;;;;;;;0.90;0.90;;;25.00;67.70;;;;;;5034603;28;20497;-73
2022/08/25 07:42:02;;;;;;;1.03;1.03;;;25.10;68.10;;;;;;5033979;28;20463;-73
2022/08/25 07:44:28;;;;;;;0.90;0.90;;;25.10;67.50;;;;;;5033952;28;20443;-74
2022/08/25 07:46:56;;;;;;;0.80;0.80;;;25.10;67.60;;;;;;5033907;28;20497;-73
2022/08/25 07:49:25;;;;;;;0.80;0.80;;;25.40;67.10;;;;;;5033517;28;20974;-72
2022/08/25 07:51:53;;;;;;;0.90;0.90;;;25.50;66.40;;;;;;5033743;28;20974;-72
2022/08/25 07:54:20;;;;;;;0.80;0.80;;;25.80;66.30;;;;;;5033767;28;20455;-73
2022/08/25 07:56:47;;;;;;;0.97;0.90;;;25.90;64.90;;;;;;5033580;28;20447;-71
2022/08/25 07:59:13;;;;;;;1.00;1.00;;;25.60;66.00;;;;;;5033686;28;20483;-72
2022/08/25 08:01:41;;;;;;;0.80;0.80;;;25.60;65.80;;;;;;5033342;28;20480;-72
2022/08/25 08:04:08;;;;;;;0.80;0.80;;;25.60;66.80;;;;;;5033597;28;20521;-73
2022/08/25 08:06:36;;;;;;;1.00;1.00;;;25.70;65.70;;;;;;5033592;28;20447;-72
2022/08/25 08:09:03;;;;;;;0.90;0.90;;;25.30;67.10;;;;;;5033577;28;20474;-73
2022/08/25 08:11:33;;;;;;;0.90;0.90;;;25.50;66.40;;;;;;5033501;28;20463;-72
2022/08/25 08:14:00;;;;;;;1.03;1.00;;;25.60;66.50;;;;;;5033623;28;20452;-73
2022/08/25 08:16:29;;;;;;;1.00;0.83;;;25.70;65.90;;;;;;5033496;28;20456;-73
2022/08/25 08:18:57;;;;;;;0.90;0.90;;;25.90;65.80;;;;;;5033418;28;20570;-72
2022/08/25 08:21:26;;;;;;;1.00;0.77;;;26.30;65.40;;;;;;5033090;28;20994;-72
2022/08/25 08:23:55;;;;;;;0.80;0.73;;;26.70;63.70;;;;;;5033436;28;20518;-75
2022/08/25 08:26:23;;;;;;;0.90;0.90;;;27.00;64.00;;;;;;5034137;28;20447;-75
2022/08/25 08:28:50;;;;;;;0.87;0.80;;;27.10;61.60;;;;;;5033248;28;20519;-74
2022/08/25 08:31:19;;;;;;;1.00;0.90;;;26.70;63.70;;;;;;5033043;28;20487;-74
2022/08/25 08:33:46;;;;;;;0.80;0.80;;;26.90;63.30;;;;;;5033301;28;20455;-74
2022/08/25 08:36:13;;;;;;;0.90;0.90;;;27.00;63.10;;;;;;5032930;28;20817;-76
2022/08/25 08:38:42;;;;;;;0.87;0.87;;;27.10;62.90;;;;;;5033153;28;20479;-76
2022/08/25 08:44:24;;;;;;;1.00;0.80;;;27.20;61.90;;;;;;5033349;28;20419;-76
2022/08/25 08:47:02;;;;;;;0.90;0.80;;;27.00;62.20;;;;;;5033817;28;20498;-76
2022/08/25 08:49:39;;;;;;;0.83;0.77;;;27.00;62.60;;;;;;5033136;28;20838;-76
2022/08/25 08:52:09;;;;;;;0.80;0.80;;;27.00;62.80;;;;;;5032722;28;20986;-75
2022/08/25 08:54:39;;;;;;;0.80;0.80;;;26.60;62.70;;;;;;5033099;28;20443;-75
2022/08/25 08:57:11;;;;;;;0.80;0.80;;;26.10;64.40;;;;;;5033500;28;20446;-76
2022/08/25 08:59:48;;;;;;;0.80;0.80;;;26.30;64.20;;;;;;5033112;28;20499;-76
2022/08/25 09:02:25;;;;;;;0.80;0.80;;;26.40;63.80;;;;;;5032737;28;20521;-75
2022/08/25 09:04:56;;;;;;;0.93;0.83;;;26.50;63.20;;;;;;5032744;28;20976;-75
2022/08/25 09:07:29;;;;;;;0.73;0.73;;;26.70;62.80;;;;;;5033061;28;20428;-75
2022/08/25 09:09:56;;;;;;;1.00;0.90;;;26.70;62.90;;;;;;5036609;28;20851;-76
2022/08/25 09:12:34;;;;;;;0.80;0.80;;;26.80;62.80;;;;;;5036727;28;20463;-75
2022/08/25 09:15:12;;;;;;;0.70;0.70;;;27.00;62.00;;;;;;5038265;28;20440;-75
2022/08/25 09:18:07;;;;;;;0.70;0.70;;;26.90;62.00;;;;;;5036727;28;20436;-76
2022/08/25 09:20:48;;;;;;;0.80;0.80;;;27.00;61.90;;;;;;5023055;28;20455;-75
2022/08/25 09:23:27;;;;;;;0.80;0.80;;;26.80;62.80;;;;;;5036655;28;20435;-76
2022/08/25 09:25:59;;;;;;;0.80;0.80;;;27.00;62.10;;;;;;5036645;28;20423;-75
2022/08/25 09:28:32;;;;;;;0.80;0.70;;;26.80;62.10;;;;;;5036347;28;20457;-75
2022/08/25 09:31:01;;;;;;;0.80;0.70;;;27.30;61.60;;;;;;5036415;28;20471;-76
2022/08/25 09:33:31;;;;;;;1.00;1.00;;;27.40;61.80;;;;;;5036443;28;20443;-76
2022/08/25 09:35:58;;;;;;;0.80;0.80;;;27.70;61.20;;;;;;5036344;28;20493;-75
2022/08/25 09:38:25;;;;;;;0.80;0.80;;;28.00;61.10;;;;;;5036247;28;20483;-76
2022/08/25 09:40:55;;;;;;;1.20;0.80;;;27.90;60.70;;;;;;5036277;28;20554;-76
2022/08/25 09:43:24;;;;;;;0.80;0.73;;;28.30;59.20;;;;;;5035934;28;20447;-74
2022/08/25 09:45:59;;;;;;;0.70;0.70;;;28.30;59.10;;;;;;5036178;28;20451;-73
2022/08/25 09:48:29;;;;;;;0.83;0.83;;;28.20;59.60;;;;;;5036181;28;20489;-75
2022/08/25 09:51:00;;;;;;;0.90;0.90;;;28.00;59.20;;;;;;5035668;28;20986;-73
2022/08/25 09:53:28;;;;;;;1.00;1.00;;;27.90;59.70;;;;;;5036068;28;20440;-74
2022/08/25 09:56:03;;;;;;;1.00;0.80;;;27.70;60.20;;;;;;5036019;28;20447;-74
2022/08/25 09:58:30;;;;;;;0.90;0.80;;;27.90;59.90;;;;;;5035926;28;20470;-74
2022/08/25 10:01:14;;;;;;;1.00;0.90;;;27.90;61.10;;;;;;5035693;28;20487;-74
2022/08/25 10:03:58;;;;;;;0.80;0.80;;;28.10;59.70;;;;;;5035980;28;20451;-73
2022/08/25 10:06:28;;;;;;;1.00;0.90;;;28.20;60.60;;;;;;5035856;28;20432;-74
2022/08/25 10:09:01;;;;;;;0.90;0.70;;;28.40;58.90;;;;;;5035840;28;20435;-74
2022/08/25 10:11:39;;;;;;;0.70;0.70;;;28.50;58.40;;;;;;5035676;28;20464;-72
2022/08/25 10:14:17;;;;;;;0.80;0.80;;;28.40;59.00;;;;;;5035781;28;20498;-75
2022/08/25 10:16:46;;;;;;;0.70;0.70;;;28.40;57.90;;;;;;5035653;28;20438;-75
2022/08/25 10:19:22;;;;;;;0.80;0.80;;;28.70;56.80;;;;;;5034566;28;20517;-76
2022/08/25 10:22:05;;;;;;;0.77;0.77;;;28.60;57.10;;;;;;5035365;28;20470;-76
2022/08/25 10:24:33;;;;;;;0.70;0.70;;;28.50;57.80;;;;;;5035528;28;20829;-76
2022/08/25 10:27:08;;;;;;;0.70;0.60;;;28.60;58.10;;;;;;5035537;28;20451;-75
2022/08/25 10:29:54;;;;;;;0.80;0.80;;;28.90;57.60;;;;;;5035509;28;20432;-78
2022/08/25 10:32:31;;;;;;;0.70;0.70;;;29.20;56.80;;;;;;5035056;28;20985;-76
2022/08/25 10:35:02;;;;;;;0.97;0.80;;;29.10;56.50;;;;;;5035306;28;20431;-76
2022/08/25 10:37:41;;;;;;;0.90;0.90;;;29.10;55.80;;;;;;5035323;28;20444;-75
2022/08/25 10:40:17;;;;;;;1.07;0.70;;;29.20;55.50;;;;;;5035157;28;20467;-75
2022/08/25 10:42:52;;;;;;;0.70;0.60;;;29.30;55.50;;;;;;5035054;28;20525;-76
2022/08/25 10:48:27;;;;;;;0.70;0.70;;;29.00;55.80;;;;;;5035134;28;20407;-75
2022/08/25 10:51:00;;;;;;;0.80;0.73;;;29.30;55.20;;;;;;5034859;28;20467;-75
2022/08/25 10:53:34;;;;;;;0.80;0.70;;;29.60;54.10;;;;;;5035286;28;20504;-76
2022/08/25 10:56:10;;;;;;;0.70;0.70;;;29.50;55.00;;;;;;5034923;28;20435;-76
2022/08/25 10:58:54;;;;;;;0.70;0.70;;;29.60;54.50;;;;;;5034558;28;20962;-76
2022/08/25 11:01:35;;;;;;;0.90;0.73;;;29.60;55.10;;;;;;5034511;28;20483;-76
2022/08/25 11:04:08;;;;;;;0.70;0.70;;;29.50;55.30;;;;;;5034652;28;20935;-76
2022/08/25 11:06:40;;;;;;;0.70;0.70;;;29.50;54.80;;;;;;5034671;28;20446;-76
2022/08/25 11:09:10;;;;;;;0.70;0.70;;;29.60;54.80;;;;;;5034673;28;20436;-76
2022/08/25 11:11:45;;;;;;;0.70;0.70;;;29.70;55.10;;;;;;5034504;28;20522;-75
2022/08/25 11:14:18;;;;;;;0.80;0.80;;;29.80;54.30;;;;;;5034558;28;20436;-75
2022/08/25 11:16:54;;;;;;;0.70;0.70;;;29.70;54.00;;;;;;5034574;28;20440;-76
2022/08/25 11:19:29;;;;;;;0.70;0.70;;;29.40;54.90;;;;;;5034429;28;20467;-76
2022/08/25 11:22:04;;;;;;;1.10;0.70;;;29.50;54.60;;;;;;5034353;28;20511;-76
2022/08/25 11:24:42;;;;;;;0.80;0.80;;;29.80;54.70;;;;;;5034064;28;20795;-75
2022/08/25 11:27:15;;;;;;;0.80;0.73;;;30.20;54.20;;;;;;5034039;28;20523;-76
2022/08/25 11:29:48;;;;;;;0.80;0.80;;;30.20;53.00;;;;;;5034231;28;20868;-77
2022/08/25 11:32:21;;;;;;;0.70;0.70;;;30.00;53.30;;;;;;5033817;28;20464;-76
2022/08/25 11:34:50;;;;;;;0.70;0.70;;;30.10;53.50;;;;;;5034211;28;20439;-75
2022/08/25 11:37:22;;;;;;;0.70;0.70;;;30.20;53.30;;;;;;5034108;28;20447;-75
2022/08/25 11:40:26;;;;;;;0.70;0.70;;;30.40;52.50;;;;;;5034102;28;20472;-75
2022/08/25 11:43:05;;;;;;;0.70;0.70;;;30.40;52.00;;;;;;5034088;28;20493;-75
2022/08/25 11:45:48;;;;;;;0.77;0.77;;;30.20;52.20;;;;;;5034257;28;20435;-75
2022/08/25 11:48:27;;;;;;;0.70;0.60;;;30.00;52.60;;;;;;5033964;28;20436;-76
2022/08/25 11:51:00;;;;;;;0.70;0.60;;;29.70;53.90;;;;;;5033993;28;20475;-75
2022/08/25 11:53:29;;;;;;;0.70;0.70;;;30.00;53.30;;;;;;5033864;28;20436;-75
2022/08/25 11:56:01;;;;;;;0.70;0.70;;;30.40;52.40;;;;;;5033851;28;20467;-75
2022/08/25 11:58:43;;;;;;;0.80;0.63;;;30.70;52.50;;;;;;5033967;28;20443;-75
2022/08/25 12:01:55;;;;;;;0.97;0.80;;;30.70;52.40;;;;;;5033562;28;20491;-75
2022/08/25 12:04:41;;;;;;;1.00;0.63;;;30.60;52.10;;;;;;5033745;28;20439;-76
2022/08/25 12:07:22;;;;;;;0.80;0.80;;;30.80;51.30;;;;;;5033683;28;20435;-76
2022/08/25 12:10:11;;;;;;;0.70;0.60;;;30.90;51.00;;;;;;5033656;28;20439;-75
2022/08/25 12:13:00;;;;;;;0.70;0.70;;;31.10;49.60;;;;;;5029264;28;20494;-74
2022/08/25 12:15:29;;;;;;;0.70;0.70;;;31.50;50.00;;;;;;5033638;28;20432;-75
2022/08/25 12:18:11;;;;;;;0.90;0.67;;;31.70;49.20;;;;;;5033630;28;20534;-75
2022/08/25 12:21:09;;;;;;;0.70;0.70;;;31.90;49.60;;;;;;5033569;28;20471;-76
2022/08/25 12:23:39;;;;;;;0.80;0.70;;;32.00;48.70;;;;;;5033703;28;20432;-75
2022/08/25 12:26:51;;;;;;;0.70;0.70;;;32.10;49.10;;;;;;5033412;28;20509;-74
2022/08/25 12:29:40;;;;;;;0.70;0.70;;;32.10;49.00;;;;;;5033190;28;20858;-75
2022/08/25 12:32:22;;;;;;;0.80;0.70;;;31.70;49.50;;;;;;5033875;28;20471;-75
2022/08/25 12:35:13;;;;;;;0.73;0.73;;;31.70;49.00;;;;;;5033331;28;20435;-75
2022/08/25 12:37:55;;;;;;;1.00;0.70;;;31.30;49.80;;;;;;5033449;28;20436;-74
2022/08/25 12:40:27;;;;;;;0.70;0.70;;;31.20;49.70;;;;;;5033146;28;20974;-74
2022/08/25 12:43:04;;;;;;;0.70;0.70;;;30.70;50.50;;;;;;5033726;28;21001;-76
2022/08/25 12:45:41;;;;;;;0.70;0.70;;;30.90;51.00;;;;;;5037386;28;20431;-76
2022/08/25 12:48:43;;;;;;;0.70;0.70;;;31.10;50.20;;;;;;5037339;28;20435;-76
2022/08/25 12:51:17;;;;;;;0.70;0.70;;;31.20;49.90;;;;;;5031933;28;20478;-74
2022/08/25 12:53:48;;;;;;;0.80;0.80;;;31.40;49.30;;;;;;5037372;28;20463;-74
2022/08/25 12:56:26;;;;;;;0.70;0.67;;;31.60;48.80;;;;;;5037791;28;20443;-75
2022/08/25 12:59:00;;;;;;;0.70;0.60;;;31.80;48.30;;;;;;5037402;28;20486;-78
2022/08/25 13:01:36;;;;;;;0.80;0.70;;;31.80;48.10;;;;;;5036799;28;20831;-78
2022/08/25 13:04:55;;;;;;;0.70;0.60;;;31.80;48.60;;;;;;5037600;28;20435;-78
2022/08/25 13:07:35;;;;;;;0.70;0.60;;;32.00;48.00;;;;;;5012164;28;20448;-77
2022/08/25 13:10:33;;;;;;;0.70;0.60;;;31.70;47.90;;;;;;5036866;28;20835;-77
2022/08/25 13:13:06;;;;;;;0.80;0.60;;;31.30;48.90;;;;;;5037495;28;20447;-77
2022/08/25 13:15:37;;;;;;;0.70;0.70;;;30.90;49.80;;;;;;5036838;28;20489;-77
2022/08/25 13:18:21;;;;;;;0.80;0.80;;;30.90;49.80;;;;;;5036734;28;20427;-77
2022/08/25 13:20:50;;;;;;;0.80;0.60;;;31.10;49.70;;;;;;5036647;28;20562;-77
2022/08/25 13:23:22;;;;;;;0.80;0.70;;;31.30;49.10;;;;;;5036335;28;20448;-75
2022/08/25 13:25:51;;;;;;;0.90;0.80;;;31.20;50.00;;;;;;5036659;28;20519;-75
2022/08/25 13:28:26;;;;;;;0.70;0.60;;;30.90;50.40;;;;;;5036531;28;20451;-75
2022/08/25 13:30:58;;;;;;;0.70;0.63;;;30.70;50.10;;;;;;5036097;28;21060;-74
2022/08/25 13:33:25;;;;;;;0.80;0.80;;;30.80;49.80;;;;;;5036421;28;20443;-75
2022/08/25 13:37:26;;;;;;;0.70;0.60;;;30.80;49.80;;;;;;5036375;28;20454;-75
2022/08/25 13:38:42;;;;;;;0.70;0.60;;;30.50;50.50;;;;;;5035921;28;20816;-75
2022/08/25 13:41:10;;;;;;;0.70;0.70;;;30.30;50.90;;;;;;5036202;28;20490;-75
2022/08/25 13:43:38;;;;;;;0.70;0.60;;;30.70;50.60;;;;;;5036232;28;20451;-75
2022/08/25 13:46:06;;;;;;;0.70;0.70;;;30.70;50.50;;;;;;5036180;28;20448;-75
2022/08/25 13:48:35;;;;;;;0.73;0.63;;;30.70;50.30;;;;;;5036147;28;20542;-75
2022/08/25 13:51:17;;;;;;;1.37;0.60;;;30.60;50.50;;;;;;5036040;28;20468;-75
2022/08/25 13:53:53;;;;;;;0.73;0.70;;;30.30;50.90;;;;;;5036438;28;20527;-74
2022/08/25 13:56:26;;;;;;;0.80;0.73;;;30.10;51.40;;;;;;5035883;28;20974;-74
2022/08/25 13:58:54;;;;;;;0.70;0.60;;;30.00;51.50;;;;;;5036000;28;20439;-75
2022/08/25 14:01:25;;;;;;;1.43;0.60;;;30.20;51.20;;;;;;5035736;28;20472;-75
2022/08/25 14:03:53;;;;;;;0.70;0.67;;;30.30;50.70;;;;;;5035896;28;20483;-75
2022/08/25 14:06:22;;;;;;;0.97;0.63;;;30.60;51.60;;;;;;5035876;28;20475;-76
2022/08/25 14:09:05;;;;;;;0.70;0.60;;;30.80;51.40;;;;;;5035516;28;20997;-75
2022/08/25 14:11:34;;;;;;;0.80;0.60;;;31.50;49.80;;;;;;5035483;28;20879;-76
2022/08/25 14:14:04;;;;;;;0.80;0.63;;;32.10;49.40;;;;;;5035787;28;20444;-75
2022/08/25 14:16:37;;;;;;;2.00;0.60;;;32.40;47.30;;;;;;5037050;28;20426;-74
2022/08/25 14:19:03;;;;;;;0.70;0.60;;;32.40;45.90;;;;;;5035608;28;20430;-76
2022/08/25 14:21:32;;;;;;;0.70;0.60;;;32.40;46.10;;;;;;5035750;28;20479;-75
2022/08/25 14:24:00;;;;;;;0.70;0.60;;;32.70;46.70;;;;;;5035490;28;20967;-76
2022/08/25 14:26:27;;;;;;;0.70;0.60;;;32.70;46.10;;;;;;5035126;28;20454;-75
2022/08/25 14:28:55;;;;;;;0.70;0.60;;;32.60;46.60;;;;;;5035445;28;20554;-75
2022/08/25 14:31:26;;;;;;;0.80;0.70;;;32.40;46.90;;;;;;5035055;28;20562;-76
2022/08/25 14:33:56;;;;;;;0.73;0.60;;;32.00;47.70;;;;;;5035485;28;20448;-76
2022/08/25 14:36:23;;;;;;;0.70;0.63;;;31.90;47.80;;;;;;5035509;28;20822;-76
2022/08/25 14:38:49;;;;;;;0.73;0.60;;;31.70;47.30;;;;;;5035268;28;20451;-75
2022/08/25 14:41:16;;;;;;;0.70;0.60;;;31.40;47.20;;;;;;5035145;28;20491;-75
2022/08/25 14:43:44;;;;;;;0.83;0.60;;;31.00;48.20;;;;;;5034877;28;20534;-77
2022/08/25 14:46:16;;;;;;;0.70;0.60;;;31.10;48.20;;;;;;5035185;28;20447;-76
2022/08/25 14:48:46;;;;;;;0.80;0.70;;;31.30;47.90;;;;;;5034785;28;20821;-76
2022/08/25 14:51:15;;;;;;;0.70;0.60;;;32.10;47.20;;;;;;5034695;28;21035;-76
2022/08/25 14:53:43;;;;;;;0.80;0.60;;;32.70;46.30;;;;;;5034969;28;20455;-76
2022/08/25 14:56:10;;;;;;;0.70;0.60;;;32.70;46.20;;;;;;5034946;28;20451;-76
2022/08/25 14:58:37;;;;;;;0.70;0.60;;;33.10;45.60;;;;;;5034916;28;20494;-76
2022/08/25 15:01:04;;;;;;;0.70;0.60;;;33.70;44.40;;;;;;5034496;28;20587;-76
2022/08/25 15:03:33;;;;;;;0.70;0.60;;;34.80;42.80;;;;;;5034508;28;20973;-76
2022/08/25 15:06:02;;;;;;;0.70;0.50;;;35.40;42.00;;;;;;5034038;28;20530;-77
2022/08/25 15:11:14;;;;;;;1.00;0.63;;;36.80;39.60;;;;;;5034731;28;20501;-76
2022/08/25 15:13:41;;;;;;;1.13;0.50;;;37.60;38.10;;;;;;5034566;28;20474;-76
2022/08/25 15:16:08;;;;;;;0.70;0.60;;;38.60;37.40;;;;;;5050351;23;20502;-75
2022/08/25 15:18:35;;;;;;;0.70;0.60;;;39.10;36.40;;;;;;5034530;28;20522;-74
2022/08/25 15:21:03;;;;;;;0.70;0.60;;;38.30;37.60;;;;;;5034339;28;20475;-75
2022/08/25 15:23:31;;;;;;;0.70;0.50;;;37.30;38.40;;;;;;5034394;28;20462;-75
2022/08/25 15:25:57;;;;;;;0.80;0.60;;;36.90;38.60;;;;;;5034262;28;20467;-74
2022/08/25 15:28:25;;;;;;;0.70;0.60;;;36.80;39.10;;;;;;5034317;28;20454;-75
2022/08/25 15:30:51;;;;;;;0.80;0.60;;;36.80;39.40;;;;;;5034289;28;20870;-75
2022/08/25 15:33:18;;;;;;;0.70;0.60;;;36.80;39.30;;;;;;5034236;28;20506;-75
2022/08/25 15:35:45;;;;;;;0.80;0.60;;;36.20;39.70;;;;;;5033747;28;20471;-75
2022/08/25 15:38:13;;;;;;;0.70;0.50;;;35.60;40.60;;;;;;5034118;28;20856;-74
2022/08/25 15:40:40;;;;;;;0.70;0.50;;;35.30;40.50;;;;;;5034028;28;20485;-74
2022/08/25 15:43:07;;;;;;;0.80;0.60;;;34.80;41.30;;;;;;5034045;28;20443;-75
2022/08/25 15:45:34;;;;;;;0.70;0.60;;;34.20;41.70;;;;;;5033884;28;20468;-75
2022/08/25 15:48:01;;;;;;;0.80;0.60;;;33.70;42.60;;;;;;5033643;28;20998;-75
2022/08/25 15:50:28;;;;;;;0.70;0.60;;;32.90;43.40;;;;;;5033937;28;20440;-75
2022/08/25 15:52:54;;;;;;;0.70;0.60;;;32.60;44.40;;;;;;5033922;28;20501;-74
2022/08/25 15:55:22;;;;;;;0.70;0.60;;;32.30;44.90;;;;;;5033801;28;20467;-75
2022/08/25 15:57:49;;;;;;;0.80;0.60;;;32.20;45.40;;;;;;5033832;28;20451;-74
2022/08/25 16:00:17;;;;;;;0.70;0.70;;;32.00;45.60;;;;;;5034080;28;20475;-74
2022/08/25 16:02:44;;;;;;;0.70;0.60;;;31.80;46.50;;;;;;5033776;28;20585;-73
2022/08/25 16:05:11;;;;;;;0.70;0.60;;;31.60;46.60;;;;;;5033782;28;20503;-73
2022/08/25 16:07:38;;;;;;;0.80;0.70;;;31.10;48.00;;;;;;5033754;28;20453;-75
2022/08/25 16:10:05;;;;;;;0.70;0.57;;;30.80;48.30;;;;;;5033374;28;20821;-73
2022/08/25 16:12:33;;;;;;;0.70;0.70;;;30.70;48.50;;;;;;5033667;28;20447;-73
2022/08/25 16:15:00;;;;;;;0.70;0.60;;;30.60;49.10;;;;;;5033354;28;20478;-73
2022/08/25 16:17:27;;;;;;;0.70;0.60;;;30.40;49.30;;;;;;5033222;28;20922;-73
2022/08/25 16:19:53;;;;;;;0.70;0.60;;;30.20;49.80;;;;;;5033456;28;20509;-74
2022/08/25 16:22:20;;;;;;;1.00;0.83;;;30.30;49.80;;;;;;5033210;28;20879;-73